Terminal Aerodrome Forecast
Issued by NWS Blacksburg, VA

Current Version | Previous Version | Graphics & Text | Print | Product List | Glossary On
Versions: 1 2 3 4 5 6 7 8 9 10 11 12 13 14 15 16 17 18 19 20 21 22 23 24 25
000
FTUS41 KRNK 210339 AAD
TAFBLF
TAF AMD
KBLF 210339Z 2104/2124 VRB04KT P6SM VCSH FEW025 BKN040
      TEMPO 2105/2108 4SM -SHRA BR OVC007
     FM211100 27007KT P6SM BKN007
     FM211800 30006KT P6SM BKN015=

USA.gov is the U.S. government's official web portal to all federal, state and local government web resources and services.